createdAt,value
2022-08-25T00:01:39.911Z,8.43
2022-08-25T00:04:10.961Z,10.32
2022-08-25T00:06:39.828Z,6.50
2022-08-25T00:09:08.479Z,8.73
2022-08-25T00:11:36.802Z,6.85
2022-08-25T00:14:08.396Z,7.30
2022-08-25T00:16:35.180Z,10.43
2022-08-25T00:19:06.532Z,6.93
2022-08-25T00:21:33.694Z,7.55
2022-08-25T00:24:02.435Z,7.60
2022-08-25T00:26:30.526Z,8.63
2022-08-25T00:29:01.561Z,7.50
2022-08-25T00:31:37.939Z,7.00
2022-08-25T00:34:08.718Z,6.70
2022-08-25T00:36:36.278Z,10.60
2022-08-25T00:39:04.003Z,9.60
2022-08-25T00:41:30.789Z,5.30
2022-08-25T00:44:00.188Z,5.22
2022-08-25T00:46:39.894Z,6.15
2022-08-25T00:49:11.871Z,6.95
2022-08-25T00:52:15.099Z,6.15
2022-08-25T00:54:54.893Z,7.28
2022-08-25T00:57:31.759Z,8.43
2022-08-25T01:00:08.842Z,7.75
2022-08-25T01:02:35.601Z,5.53
2022-08-25T01:05:02.788Z,8.00
2022-08-25T01:07:29.706Z,7.95
2022-08-25T01:09:56.469Z,6.07
2022-08-25T01:12:23.182Z,8.27
2022-08-25T01:14:51.295Z,7.07
2022-08-25T01:17:18.293Z,5.65
2022-08-25T01:19:45.162Z,13.45
2022-08-25T01:22:12.456Z,7.82
2022-08-25T01:24:52.795Z,6.95
2022-08-25T01:27:19.473Z,6.47
2022-08-25T01:29:46.466Z,6.55
2022-08-25T01:32:14.959Z,11.38
2022-08-25T01:34:44.683Z,6.95
2022-08-25T01:37:14.102Z,11.40
2022-08-25T01:39:42.634Z,6.15
2022-08-25T01:43:00.230Z,8.77
2022-08-25T01:45:28.897Z,6.35
2022-08-25T01:47:55.683Z,6.93
2022-08-25T01:50:22.383Z,10.90
2022-08-25T01:53:15.711Z,6.35
2022-08-25T01:56:01.873Z,9.30
2022-08-25T01:58:32.150Z,10.30
2022-08-25T02:01:01.708Z,6.65
2022-08-25T02:03:29.597Z,6.75
2022-08-25T02:05:58.004Z,7.07
2022-08-25T02:08:25.500Z,8.20
2022-08-25T02:10:54.357Z,10.73
2022-08-25T02:13:26.685Z,6.53
2022-08-25T02:16:00.238Z,8.27
2022-08-25T02:18:26.985Z,13.40
2022-08-25T02:20:54.414Z,6.90
2022-08-25T02:23:21.151Z,6.38
2022-08-25T02:25:47.952Z,10.00
2022-08-25T02:28:14.718Z,5.78
2022-08-25T02:30:42.751Z,8.95
2022-08-25T02:33:09.771Z,6.35
2022-08-25T02:35:36.799Z,7.97
2022-08-25T02:38:04.275Z,12.82
2022-08-25T02:40:31.242Z,7.70
2022-08-25T02:42:57.916Z,7.15
2022-08-25T02:45:24.651Z,6.25
2022-08-25T02:47:52.263Z,8.45
2022-08-25T02:50:19.110Z,6.82
2022-08-25T02:52:46.373Z,9.63
2022-08-25T02:55:14.375Z,6.65
2022-08-25T02:57:42.471Z,10.00
2022-08-25T03:00:12.790Z,8.38
2022-08-25T03:02:41.454Z,13.60
2022-08-25T03:05:09.721Z,10.68
2022-08-25T03:07:38.081Z,8.07
2022-08-25T03:10:11.598Z,6.55
2022-08-25T03:12:38.298Z,8.45
2022-08-25T03:15:05.683Z,13.60
2022-08-25T03:17:39.898Z,10.40
2022-08-25T03:20:08.053Z,6.28
2022-08-25T03:22:34.904Z,8.82
2022-08-25T03:25:24.082Z,7.25
2022-08-25T03:27:51.928Z,13.18
2022-08-25T03:30:18.880Z,9.00
2022-08-25T03:32:45.526Z,6.57
2022-08-25T03:35:12.768Z,8.82
2022-08-25T03:37:39.708Z,9.25
2022-08-25T03:40:15.227Z,6.47
2022-08-25T03:42:45.440Z,10.18
2022-08-25T03:45:15.754Z,8.32
2022-08-25T03:47:42.528Z,8.15
2022-08-25T03:50:10.854Z,8.70
2022-08-25T03:52:42.437Z,11.75
2022-08-25T03:55:12.450Z,7.07
2022-08-25T03:57:39.481Z,8.80
2022-08-25T04:00:12.252Z,10.20
2022-08-25T04:02:40.048Z,13.98
2022-08-25T04:05:08.290Z,15.52
2022-08-25T04:07:36.046Z,10.02
2022-08-25T04:10:03.514Z,14.00
2022-08-25T04:12:30.398Z,5.13
2022-08-25T04:14:58.405Z,6.97
2022-08-25T04:17:25.231Z,8.85
2022-08-25T04:19:52.018Z,6.35
2022-08-25T04:22:18.691Z,8.52
2022-08-25T04:24:45.698Z,11.40
2022-08-25T04:27:12.560Z,8.75
2022-08-25T04:29:39.158Z,5.10
2022-08-25T04:32:06.175Z,18.85
2022-08-25T04:34:33.421Z,7.45
2022-08-25T04:37:03.467Z,6.75
2022-08-25T04:39:30.723Z,10.13
2022-08-25T04:41:57.568Z,10.45
2022-08-25T04:44:24.258Z,11.98
2022-08-25T04:46:51.024Z,7.97
2022-08-25T04:49:17.921Z,6.20
2022-08-25T04:51:45.439Z,12.60
2022-08-25T04:54:16.900Z,7.10
2022-08-25T04:56:44.069Z,9.83
2022-08-25T04:59:13.662Z,10.98
2022-08-25T05:01:42.355Z,6.30
2022-08-25T05:04:15.744Z,8.15
2022-08-25T05:06:55.299Z,12.57
2022-08-25T05:09:22.057Z,5.47
2022-08-25T05:11:49.243Z,7.72
2022-08-25T05:14:18.389Z,12.68
2022-08-25T05:16:46.438Z,5.88
2022-08-25T05:19:13.370Z,11.50
2022-08-25T05:21:41.007Z,7.38
2022-08-25T05:24:08.079Z,10.50
2022-08-25T05:26:36.665Z,26.67
2022-08-25T05:29:04.994Z,14.45
2022-08-25T05:31:32.967Z,14.05
2022-08-25T05:34:00.463Z,10.68
2022-08-25T05:36:28.024Z,17.02
2022-08-25T05:38:54.991Z,7.40
2022-08-25T05:41:26.715Z,9.77
2022-08-25T05:43:53.395Z,7.70
2022-08-25T05:46:21.341Z,25.60
2022-08-25T05:48:48.925Z,14.32
2022-08-25T05:51:16.443Z,12.00
2022-08-25T05:53:46.224Z,11.70
2022-08-25T05:56:14.191Z,8.43
2022-08-25T05:58:42.595Z,8.13
2022-08-25T06:01:28.173Z,11.38
2022-08-25T06:03:55.290Z,8.43
2022-08-25T06:06:23.092Z,7.25
2022-08-25T06:08:49.903Z,9.48
2022-08-25T06:11:16.838Z,8.93
2022-08-25T06:13:43.650Z,7.35
2022-08-25T06:16:10.642Z,5.75
2022-08-25T06:18:37.413Z,7.32
2022-08-25T06:21:12.871Z,12.20
2022-08-25T06:23:40.739Z,6.88
2022-08-25T06:26:13.213Z,8.70
2022-08-25T06:28:47.690Z,9.63
2022-08-25T06:31:14.456Z,8.25
2022-08-25T06:33:41.314Z,9.52
2022-08-25T06:36:08.762Z,8.23
2022-08-25T06:38:36.187Z,5.68
2022-08-25T06:41:07.447Z,12.93
2022-08-25T06:43:34.892Z,7.25
2022-08-25T06:46:34.690Z,5.63
2022-08-25T06:49:05.405Z,10.95
2022-08-25T06:51:32.094Z,8.27
2022-08-25T06:53:58.731Z,7.55
2022-08-25T06:56:25.850Z,7.75
2022-08-25T06:58:53.501Z,9.48
2022-08-25T07:01:23.925Z,9.60
2022-08-25T07:03:57.593Z,5.70
2022-08-25T07:06:25.880Z,14.10
2022-08-25T07:08:52.730Z,4.80
2022-08-25T07:11:21.400Z,9.13
2022-08-25T07:13:49.302Z,5.55
2022-08-25T07:16:17.370Z,7.32
2022-08-25T07:18:45.271Z,7.22
2022-08-25T07:21:13.391Z,7.60
2022-08-25T07:23:41.651Z,7.28
2022-08-25T07:29:09.598Z,8.80
2022-08-25T07:31:36.429Z,7.60
2022-08-25T07:34:22.691Z,8.45
2022-08-25T07:36:49.715Z,7.38
2022-08-25T07:39:17.564Z,8.02
2022-08-25T07:41:51.805Z,8.20
2022-08-25T07:44:20.753Z,9.88
2022-08-25T07:46:47.508Z,8.90
2022-08-25T07:49:16.804Z,15.00
2022-08-25T07:52:05.548Z,9.93
2022-08-25T07:54:33.832Z,7.95
2022-08-25T07:57:01.032Z,7.68
2022-08-25T07:59:27.966Z,9.85
2022-08-25T08:01:54.705Z,11.43
2022-08-25T08:04:22.361Z,7.97
2022-08-25T08:06:49.275Z,8.57
2022-08-25T08:09:16.341Z,6.07
2022-08-25T08:11:53.823Z,11.90
2022-08-25T08:14:21.490Z,10.63
2022-08-25T08:16:48.221Z,12.57
2022-08-25T08:19:15.333Z,8.10
2022-08-25T08:21:42.240Z,14.40
2022-08-25T08:24:24.820Z,7.88
2022-08-25T08:26:59.058Z,9.80
2022-08-25T08:29:26.876Z,9.50
2022-08-25T08:31:53.660Z,10.80
2022-08-25T08:34:24.981Z,12.10
2022-08-25T08:36:52.800Z,10.30
2022-08-25T08:39:19.901Z,11.18
2022-08-25T08:42:28.545Z,9.38
2022-08-25T08:45:09.701Z,13.50
2022-08-25T08:48:16.326Z,10.88
2022-08-25T08:51:17.177Z,8.02
2022-08-25T08:53:54.370Z,9.75
2022-08-25T08:56:31.596Z,11.70
2022-08-25T08:59:03.759Z,11.00
2022-08-25T09:01:46.862Z,18.67
2022-08-25T09:04:46.697Z,10.15
2022-08-25T09:07:20.756Z,12.95
2022-08-25T09:09:48.159Z,10.82
2022-08-25T09:13:02.745Z,18.02
2022-08-25T09:16:34.659Z,18.42
2022-08-25T09:19:54.234Z,17.05
2022-08-25T09:23:02.912Z,32.63
2022-08-25T09:26:20.090Z,30.50
2022-08-25T09:29:01.198Z,17.05
2022-08-25T09:31:34.136Z,17.05
2022-08-25T09:34:04.682Z,15.10
2022-08-25T09:36:37.506Z,23.20
2022-08-25T09:39:07.080Z,17.52
2022-08-25T09:41:59.273Z,18.30
2022-08-25T09:44:43.541Z,22.88
2022-08-25T09:47:28.070Z,18.60
2022-08-25T09:50:04.489Z,37.15
2022-08-25T09:52:41.850Z,22.55
2022-08-25T09:55:32.412Z,27.60
2022-08-25T09:57:59.772Z,27.20
2022-08-25T10:00:34.779Z,29.48
2022-08-25T10:03:10.170Z,34.17
2022-08-25T10:06:13.271Z,27.63
2022-08-25T10:09:07.763Z,28.67
2022-08-25T10:11:44.078Z,22.75
2022-08-25T10:14:26.729Z,24.27
2022-08-25T10:17:13.285Z,34.92
2022-08-25T10:19:40.090Z,33.85
2022-08-25T10:22:32.259Z,36.80
2022-08-25T10:25:00.447Z,39.30
2022-08-25T10:27:41.708Z,31.23
2022-08-25T10:30:24.422Z,45.13
2022-08-25T10:33:20.042Z,32.13
2022-08-25T10:36:01.639Z,46.38
2022-08-25T10:38:54.745Z,36.25
2022-08-25T10:42:03.486Z,46.65
2022-08-25T10:45:09.929Z,35.65
2022-08-25T10:48:15.429Z,45.97
2022-08-25T10:51:41.235Z,41.90
2022-08-25T11:11:42.366Z,43.88
2022-08-25T11:14:16.018Z,41.03
2022-08-25T11:16:52.751Z,39.50
2022-08-25T11:22:40.960Z,38.90
2022-08-25T11:25:29.351Z,39.88
2022-08-25T11:28:06.415Z,40.65
2022-08-25T11:30:33.767Z,25.83
2022-08-25T11:33:00.703Z,35.35
2022-08-25T11:35:37.312Z,27.15
2022-08-25T11:38:29.530Z,26.83
2022-08-25T11:41:27.455Z,22.60
2022-08-25T11:44:36.146Z,18.02
2022-08-25T11:47:57.723Z,13.23
2022-08-25T11:50:36.662Z,14.30
2022-08-25T11:53:26.789Z,15.27
2022-08-25T11:56:02.322Z,14.43
2022-08-25T11:58:47.780Z,16.48
2022-08-25T12:02:01.602Z,13.00
2022-08-25T12:04:44.955Z,12.32
2022-08-25T12:07:49.970Z,11.02
2022-08-25T12:10:24.544Z,17.25
2022-08-25T12:13:26.643Z,10.95
2022-08-25T12:15:58.169Z,15.07
2022-08-25T12:18:45.499Z,16.65
2022-08-25T12:21:14.415Z,12.43
2022-08-25T12:24:04.793Z,10.48
2022-08-25T12:26:46.213Z,13.13
2022-08-25T12:29:46.485Z,11.05
2022-08-25T12:32:44.090Z,10.15
2022-08-25T12:35:53.560Z,14.52
2022-08-25T12:38:52.061Z,15.50
2022-08-25T12:41:26.141Z,19.88
2022-08-25T12:44:08.878Z,12.35
2022-08-25T12:46:39.397Z,15.75
2022-08-25T12:49:36.096Z,10.70
2022-08-25T12:52:07.923Z,15.50
2022-08-25T12:54:53.081Z,22.20
2022-08-25T12:57:45.448Z,12.82
2022-08-25T13:03:10.717Z,14.82
2022-08-25T13:06:25.812Z,15.95
2022-08-25T13:09:44.123Z,18.70
2022-08-25T13:12:20.210Z,22.80
2022-08-25T13:14:57.511Z,17.50
2022-08-25T13:17:34.132Z,19.58
2022-08-25T13:20:24.738Z,23.25
2022-08-25T13:22:57.812Z,18.38
2022-08-25T13:25:32.023Z,16.65
2022-08-25T13:28:05.017Z,13.00
2022-08-25T13:30:35.047Z,13.68
2022-08-25T13:33:20.226Z,12.65
2022-08-25T13:36:11.713Z,12.68
2022-08-25T13:38:38.731Z,15.30
2022-08-25T13:41:09.321Z,11.52
2022-08-25T13:43:38.717Z,15.63
2022-08-25T13:46:06.543Z,15.30
2022-08-25T13:48:39.761Z,10.25
2022-08-25T13:51:31.319Z,16.13
2022-08-25T13:54:05.018Z,13.18
2022-08-25T13:56:41.862Z,14.90
2022-08-25T13:59:25.857Z,13.63
2022-08-25T14:01:54.543Z,14.93
2022-08-25T14:04:32.376Z,15.23
2022-08-25T14:07:34.191Z,13.70
2022-08-25T14:10:11.328Z,14.50
2022-08-25T14:12:47.219Z,17.00
2022-08-25T14:15:38.291Z,14.73
2022-08-25T14:18:14.270Z,9.70
2022-08-25T14:20:48.020Z,17.08
2022-08-25T14:23:21.424Z,15.60
2022-08-25T14:25:52.769Z,18.90
2022-08-25T14:28:22.691Z,11.97
2022-08-25T14:30:58.956Z,11.98
2022-08-25T14:33:34.334Z,16.38
2022-08-25T14:36:04.974Z,14.52
2022-08-25T14:38:33.536Z,21.30
2022-08-25T14:41:00.442Z,13.30
2022-08-25T14:43:31.405Z,16.15
2022-08-25T14:46:02.518Z,9.10
2022-08-25T14:48:41.185Z,25.58
2022-08-25T14:51:12.002Z,12.45
2022-08-25T14:53:38.820Z,16.20
2022-08-25T14:56:09.269Z,12.25
2022-08-25T14:58:50.850Z,13.70
2022-08-25T15:01:28.961Z,16.60
2022-08-25T15:04:18.873Z,13.90
2022-08-25T15:06:49.728Z,17.77
2022-08-25T15:09:17.160Z,14.68
2022-08-25T15:11:50.943Z,9.45
2022-08-25T15:14:28.814Z,9.90
2022-08-25T15:17:01.602Z,13.93
2022-08-25T15:19:28.951Z,16.45
2022-08-25T15:21:59.097Z,10.15
2022-08-25T15:24:27.559Z,10.40
2022-08-25T15:26:59.318Z,13.32
2022-08-25T15:29:29.786Z,15.40
2022-08-25T15:31:58.481Z,10.80
2022-08-25T15:34:25.253Z,14.38
2022-08-25T15:36:52.190Z,18.33
2022-08-25T15:39:19.285Z,12.23
2022-08-25T15:41:49.343Z,15.38
2022-08-25T15:44:16.895Z,10.52
2022-08-25T15:46:49.510Z,12.23
2022-08-25T15:49:20.282Z,17.02
2022-08-25T15:51:50.126Z,15.15
2022-08-25T15:54:17.230Z,14.55
2022-08-25T15:56:44.429Z,11.52
2022-08-25T15:59:13.586Z,17.30
2022-08-25T16:01:41.254Z,14.75
2022-08-25T16:04:08.168Z,12.65
2022-08-25T16:06:35.032Z,16.08
2022-08-25T16:09:02.545Z,13.32
2022-08-25T16:11:33.665Z,14.27
2022-08-25T16:14:02.108Z,17.40
2022-08-25T16:16:30.741Z,14.02
2022-08-25T16:18:59.205Z,17.63
2022-08-25T16:21:29.950Z,18.50
2022-08-25T16:24:00.344Z,13.18
2022-08-25T16:26:30.210Z,16.25
2022-08-25T16:28:57.374Z,21.30
2022-08-25T16:31:24.641Z,17.80
2022-08-25T16:33:54.712Z,13.32
2022-08-25T16:36:27.241Z,18.52
2022-08-25T16:38:57.294Z,54.25
2022-08-25T16:41:27.205Z,160.80
2022-08-25T16:43:54.247Z,33.53
2022-08-25T16:46:21.653Z,30.65
2022-08-25T16:48:50.628Z,27.35
2022-08-25T16:51:22.452Z,17.77
2022-08-25T16:56:36.990Z,13.50
2022-08-25T16:59:05.019Z,13.98
2022-08-25T17:01:36.408Z,15.25
2022-08-25T17:04:03.894Z,15.90
2022-08-25T17:06:35.333Z,17.02
2022-08-25T17:09:02.370Z,19.80
2022-08-25T17:11:32.805Z,15.65
2022-08-25T17:14:01.551Z,13.98
2022-08-25T17:16:32.307Z,18.00
2022-08-25T17:19:06.935Z,20.80
2022-08-25T17:21:40.491Z,21.90
2022-08-25T17:24:12.815Z,16.92
2022-08-25T17:26:41.820Z,16.73
2022-08-25T17:29:09.816Z,24.52
2022-08-25T17:31:39.703Z,19.20
2022-08-25T17:34:09.456Z,20.67
2022-08-25T17:36:36.548Z,17.95
2022-08-25T17:39:04.290Z,18.27
2022-08-25T17:41:32.253Z,17.90
2022-08-25T17:43:59.446Z,18.23
2022-08-25T17:46:27.403Z,18.45
2022-08-25T17:48:55.077Z,17.58
2022-08-25T17:51:22.960Z,13.10
2022-08-25T17:53:52.667Z,12.18
2022-08-25T17:56:22.901Z,17.83
2022-08-25T17:58:52.245Z,23.40
2022-08-25T18:01:22.818Z,19.15
2022-08-25T18:03:50.118Z,16.92
2022-08-25T18:06:17.334Z,13.18
2022-08-25T18:08:51.686Z,18.60
2022-08-25T18:11:20.418Z,15.95
2022-08-25T18:13:47.219Z,15.77
2022-08-25T18:16:17.118Z,19.75
2022-08-25T18:18:44.866Z,15.48
2022-08-25T18:21:13.955Z,15.77
2022-08-25T18:23:42.452Z,22.00
2022-08-25T18:26:10.665Z,19.48
2022-08-25T18:28:40.260Z,26.73
2022-08-25T18:31:12.086Z,16.95
2022-08-25T18:33:42.116Z,16.05
2022-08-25T18:36:09.641Z,21.42
2022-08-25T18:38:57.771Z,21.88
2022-08-25T18:41:26.088Z,19.00
2022-08-25T18:43:53.103Z,22.33
2022-08-25T18:46:22.683Z,16.48
2022-08-25T18:48:52.738Z,21.85
2022-08-25T18:51:22.832Z,16.15
2022-08-25T18:53:51.143Z,22.10
2022-08-25T18:56:18.827Z,21.65
2022-08-25T18:58:46.611Z,18.38
2022-08-25T19:01:15.024Z,22.17
2022-08-25T19:03:42.489Z,15.20
2022-08-25T19:06:09.451Z,23.10
2022-08-25T19:08:39.463Z,15.88
2022-08-25T19:11:09.829Z,26.23
2022-08-25T19:13:37.513Z,23.65
2022-08-25T19:16:20.411Z,14.95
2022-08-25T19:18:48.692Z,21.73
2022-08-25T19:21:15.838Z,20.05
2022-08-25T19:23:42.569Z,20.63
2022-08-25T19:26:16.926Z,28.73
2022-08-25T19:28:49.029Z,17.95
2022-08-25T19:31:18.282Z,23.10
2022-08-25T19:33:46.591Z,21.83
2022-08-25T19:36:13.640Z,19.85
2022-08-25T19:38:40.978Z,25.17
2022-08-25T19:41:13.828Z,18.42
2022-08-25T19:43:50.598Z,20.40
2022-08-25T19:48:50.969Z,21.55
2022-08-25T19:51:19.429Z,22.17
2022-08-25T19:53:54.268Z,23.52
2022-08-25T19:56:21.750Z,23.38
2022-08-25T19:58:48.350Z,24.77
2022-08-25T20:01:18.355Z,26.17
2022-08-25T20:03:45.410Z,26.08
2022-08-25T20:06:12.382Z,30.52
2022-08-25T20:08:43.129Z,27.20
2022-08-25T20:11:09.937Z,23.50
2022-08-25T20:13:37.154Z,22.77
2022-08-25T20:16:04.372Z,23.00
2022-08-25T20:18:32.578Z,17.85
2022-08-25T20:20:59.346Z,25.45
2022-08-25T20:23:44.475Z,22.33
2022-08-25T20:26:11.294Z,26.25
2022-08-25T20:28:38.637Z,20.02
2022-08-25T20:31:09.207Z,21.63
2022-08-25T20:33:36.045Z,21.55
2022-08-25T20:36:04.872Z,21.30
2022-08-25T20:38:33.017Z,19.98
2022-08-25T20:41:01.297Z,24.00
2022-08-25T20:43:29.829Z,25.75
2022-08-25T20:46:04.326Z,19.95
2022-08-25T20:48:31.737Z,19.42
2022-08-25T20:50:58.606Z,17.60
2022-08-25T20:53:25.728Z,24.45
2022-08-25T20:55:52.564Z,26.63
2022-08-25T20:58:20.356Z,18.75
2022-08-25T21:00:47.387Z,17.05
2022-08-25T21:03:14.100Z,23.58
2022-08-25T21:05:42.834Z,20.83
2022-08-25T21:08:10.559Z,23.70
2022-08-25T21:10:37.805Z,22.13
2022-08-25T21:13:04.400Z,17.90
2022-08-25T21:15:31.677Z,26.33
2022-08-25T21:17:58.433Z,27.27
2022-08-25T21:20:27.036Z,18.38
2022-08-25T21:22:54.412Z,23.38
2022-08-25T21:25:21.729Z,26.70
2022-08-25T21:27:49.294Z,22.25
2022-08-25T21:30:16.279Z,17.13
2022-08-25T21:32:53.476Z,19.10
2022-08-25T21:35:22.441Z,20.10
2022-08-25T21:37:53.430Z,21.38
2022-08-25T21:40:21.757Z,20.65
2022-08-25T21:42:48.865Z,18.83
2022-08-25T21:45:15.688Z,18.42
2022-08-25T21:47:42.727Z,23.13
2022-08-25T21:50:13.380Z,18.88
2022-08-25T21:52:42.228Z,22.25
2022-08-25T21:55:15.750Z,19.38
2022-08-25T21:57:43.881Z,19.45
2022-08-25T22:00:12.602Z,17.52
2022-08-25T22:02:39.473Z,20.52
2022-08-25T22:05:09.392Z,30.08
2022-08-25T22:07:41.678Z,19.85
2022-08-25T22:10:16.421Z,25.97
2022-08-25T22:12:45.257Z,20.00
2022-08-25T22:15:13.857Z,21.33
2022-08-25T22:17:41.145Z,22.70
2022-08-25T22:20:09.415Z,18.10
2022-08-25T22:22:36.148Z,26.40
2022-08-25T22:25:03.053Z,25.98
2022-08-25T22:27:31.753Z,26.20
2022-08-25T22:29:58.558Z,24.35
2022-08-25T22:32:25.562Z,32.45
2022-08-25T22:34:52.785Z,29.23
2022-08-25T22:37:19.804Z,25.30
2022-08-25T22:39:46.829Z,17.42
2022-08-25T22:42:13.513Z,20.63
2022-08-25T22:44:42.487Z,26.27
2022-08-25T22:47:10.623Z,18.63
2022-08-25T22:49:39.342Z,16.40
2022-08-25T22:52:11.483Z,27.45
2022-08-25T22:54:41.051Z,28.25
2022-08-25T22:57:07.739Z,26.55
2022-08-25T22:59:34.556Z,18.38
2022-08-25T23:02:01.394Z,20.00
2022-08-25T23:04:28.328Z,22.88
2022-08-25T23:06:55.124Z,17.90
2022-08-25T23:09:21.928Z,19.42
2022-08-25T23:11:51.344Z,24.92
2022-08-25T23:14:18.514Z,23.55
2022-08-25T23:16:45.402Z,17.77
2022-08-25T23:19:13.634Z,22.33
2022-08-25T23:22:00.029Z,23.13
2022-08-25T23:24:29.871Z,18.48
2022-08-25T23:27:02.333Z,19.17
2022-08-25T23:29:31.985Z,18.88
2022-08-25T23:31:58.764Z,22.70
2022-08-25T23:34:26.001Z,23.77
2022-08-25T23:36:53.317Z,18.02
2022-08-25T23:39:21.768Z,28.45
2022-08-25T23:41:49.265Z,24.58
2022-08-25T23:44:17.549Z,18.77
2022-08-25T23:46:47.269Z,18.90
2022-08-25T23:49:18.381Z,17.20
2022-08-25T23:51:47.230Z,25.30
2022-08-25T23:54:14.750Z,19.42
2022-08-25T23:56:45.013Z,17.50
2022-08-25T23:59:20.434Z,22.00
